createdAt,value
2018-05-13T00:00:13.397Z,15.06
2018-05-13T00:10:13.458Z,14.98
2018-05-13T00:20:13.430Z,14.86
2018-05-13T00:30:13.428Z,14.84
2018-05-13T00:40:13.386Z,14.87
2018-05-13T00:50:13.373Z,14.74
2018-05-13T01:00:13.418Z,14.47
2018-05-13T01:10:13.341Z,14.37
2018-05-13T01:20:13.365Z,14.32
2018-05-13T01:30:13.428Z,14.32
2018-05-13T01:40:13.346Z,14.21
2018-05-13T01:50:13.412Z,14.29
2018-05-13T02:00:13.373Z,14.24
2018-05-13T02:10:13.367Z,14.34
2018-05-13T02:20:13.430Z,14.21
2018-05-13T02:30:13.371Z,14.39
2018-05-13T02:40:13.334Z,14.39
2018-05-13T02:50:13.390Z,14.46
2018-05-13T03:00:13.337Z,14.52
2018-05-13T03:10:13.457Z,14.72
2018-05-13T03:20:13.403Z,15.02
2018-05-13T03:30:13.372Z,15.24
2018-05-13T03:40:13.432Z,15.54
2018-05-13T03:50:13.362Z,15.72
2018-05-13T04:00:13.444Z,15.89
2018-05-13T04:10:13.427Z,16.12
2018-05-13T04:20:13.491Z,16.25
2018-05-13T04:30:13.403Z,16.42
2018-05-13T04:40:13.484Z,16.53
2018-05-13T04:50:13.497Z,16.37
2018-05-13T05:00:13.521Z,16.27
2018-05-13T05:10:13.450Z,16.25
2018-05-13T05:20:13.534Z,16.35
2018-05-13T05:30:13.509Z,16.53
2018-05-13T05:40:13.548Z,16.96
2018-05-13T05:50:13.484Z,17.53
2018-05-13T06:00:13.476Z,17.89
2018-05-13T06:10:13.525Z,18.17
2018-05-13T06:20:13.617Z,19.01
2018-05-13T06:30:13.680Z,19.54
2018-05-13T06:40:16.133Z,20.64
2018-05-13T06:50:13.570Z,22.6
2018-05-13T07:00:13.544Z,22.2
2018-05-13T07:10:13.864Z,25.71
2018-05-13T07:20:13.613Z,29.03
2018-05-13T07:30:13.513Z,31.6
2018-05-13T07:40:30.716Z,32.73
2018-05-13T07:50:13.593Z,33.63
2018-05-13T08:00:13.846Z,33.61
2018-05-13T08:10:13.611Z,35.32
2018-05-13T08:20:14.232Z,33.92
2018-05-13T08:30:13.618Z,33.42
2018-05-13T08:40:18.681Z,33.52
2018-05-13T08:50:13.611Z,32.27
2018-05-13T09:00:13.636Z,29.74
2018-05-13T09:10:13.574Z,27.98
2018-05-13T09:20:13.643Z,27.23
2018-05-13T09:30:14.628Z,26.99
2018-05-13T09:40:13.652Z,26.17
2018-05-13T09:50:13.711Z,25.99
2018-05-13T10:00:13.745Z,25.52
2018-05-13T10:10:13.660Z,26.47
2018-05-13T10:20:14.644Z,26.18
2018-05-13T10:40:14.031Z,25.99
2018-05-13T10:50:15.621Z,26.12
2018-05-13T11:00:14.594Z,26.04
2018-05-13T11:10:13.745Z,25.82
2018-05-13T11:21:01.937Z,26.09
2018-05-13T11:31:02.061Z,26.44
2018-05-13T11:41:02.245Z,26.74
2018-05-13T11:51:02.201Z,26.98
2018-05-13T12:01:02.022Z,27.13
2018-05-13T12:11:01.942Z,27.21
2018-05-13T12:21:02.065Z,27.28
2018-05-13T12:31:01.968Z,27.57
2018-05-13T12:41:02.042Z,25.16
2018-05-13T12:51:01.998Z,24.64
2018-05-13T13:01:01.971Z,25.42
2018-05-13T13:11:02.054Z,24.16
2018-05-13T13:21:01.988Z,22.52
2018-05-13T13:31:01.971Z,20.99
2018-05-13T13:41:02.052Z,18.73
2018-05-13T13:51:02.006Z,17.54
2018-05-13T14:01:02.032Z,17.32
2018-05-13T14:11:02.011Z,17.32
2018-05-13T14:21:02.077Z,17.23
2018-05-13T14:31:02.075Z,17.22
2018-05-13T14:41:02.033Z,17.13
2018-05-13T14:51:02.110Z,16.83
2018-05-13T15:01:02.055Z,16.55
2018-05-13T15:11:01.983Z,16.31
2018-05-13T15:21:01.960Z,16.33
2018-05-13T15:31:01.973Z,16.35
2018-05-13T15:41:01.997Z,16.26
2018-05-13T15:51:01.964Z,16.2
2018-05-13T16:01:01.996Z,16.11
2018-05-13T16:11:02.004Z,16.04
2018-05-13T16:21:01.982Z,16.09
2018-05-13T16:31:01.963Z,16.12
2018-05-13T16:41:01.970Z,16
2018-05-13T16:51:01.981Z,16.04
2018-05-13T17:01:01.945Z,16.03
2018-05-13T17:11:01.972Z,16.18
2018-05-13T17:21:01.951Z,16.5
2018-05-13T17:31:01.960Z,16.65
2018-05-13T17:41:01.961Z,16.58
2018-05-13T17:51:02.095Z,16.49
2018-05-13T18:01:01.983Z,16.58
2018-05-13T18:11:02.008Z,16.55
2018-05-13T18:21:02.135Z,16.5
2018-05-13T18:31:02.272Z,16.3
2018-05-13T18:41:02.107Z,16.12
2018-05-13T18:51:02.091Z,16.23
2018-05-13T19:01:02.126Z,16.12
2018-05-13T19:11:02.175Z,16.16
2018-05-13T19:21:02.206Z,16.01
2018-05-13T19:31:02.117Z,15.78
2018-05-13T19:41:02.167Z,15.79
2018-05-13T19:51:02.143Z,15.63
2018-05-13T20:01:02.144Z,15.52
2018-05-13T20:11:02.110Z,15.56
2018-05-13T20:21:02.180Z,15.43
2018-05-13T20:31:02.156Z,15.38
2018-05-13T20:41:02.236Z,15.56
2018-05-13T20:51:02.218Z,15.61
2018-05-13T21:01:02.355Z,15.48
2018-05-13T21:11:02.190Z,15.61
2018-05-13T21:21:02.321Z,15.56
2018-05-13T21:31:02.275Z,15.48
2018-05-13T21:41:02.278Z,15.52
2018-05-13T21:51:03.517Z,15.43
2018-05-13T22:01:02.353Z,15.54
2018-05-13T22:11:02.293Z,15.68
2018-05-13T22:31:02.267Z,15.6
2018-05-13T22:41:02.318Z,15.6
2018-05-13T22:51:02.305Z,15.6
2018-05-13T23:01:02.321Z,15.66
2018-05-13T23:11:07.673Z,15.7
2018-05-13T23:21:10.212Z,15.68
2018-05-13T23:31:02.398Z,15.79
2018-05-13T23:41:02.369Z,15.78
2018-05-13T23:51:02.396Z,15.88
